Time;durP1;ratioP1;P1;durP2;ratioP2;P2;SDS_P1;SDS_P2;PMS_P1;PMS_P2;Temp;Humidity;BMP_temperature;BMP_pressure;BME280_temperature;BME280_humidity;BME280_pressure;Samples;Min_cycle;Max_cycle;Signal;HPM_P1;HPM_P2
2023/03/11 00:00:31;;;;;;;8.82;5.47;;;;;;;10.49;100.00;98726.78;5029751;28;20029;-75
2023/03/11 00:02:58;;;;;;;8.05;5.35;;;;;;;10.46;100.00;98721.94;5045247;28;20117;-74
2023/03/11 00:05:32;;;;;;;10.40;6.15;;;;;;;10.33;100.00;98719.25;5034225;28;20029;-74
2023/03/11 00:07:59;;;;;;;9.32;6.05;;;;;;;10.25;100.00;98720.97;5034468;28;20067;-75
2023/03/11 00:10:31;;;;;;;9.25;5.57;;;;;;;10.22;100.00;98721.34;5020144;28;20129;-75
2023/03/11 00:12:58;;;;;;;9.65;5.82;;;;;;;10.23;100.00;98715.13;5034890;28;20048;-75
2023/03/11 00:15:24;;;;;;;13.65;5.70;;;;;;;10.21;100.00;98711.91;5045443;28;20627;-75
2023/03/11 00:17:49;;;;;;;9.52;5.32;;;;;;;10.19;100.00;98719.09;5041564;28;20041;-75
2023/03/11 00:20:22;;;;;;;10.50;5.55;;;;;;;10.18;100.00;98703.63;5045509;28;20033;-75
2023/03/11 00:22:47;;;;;;;10.90;5.22;;;;;;;10.14;100.00;98705.81;5046424;28;20037;-75
2023/03/11 00:25:13;;;;;;;10.00;5.47;;;;;;;10.18;100.00;98729.66;5031345;28;20040;-75
2023/03/11 00:27:39;;;;;;;9.35;4.82;;;;;;;10.12;100.00;98720.78;5038928;28;20036;-75
2023/03/11 00:30:05;;;;;;;10.07;5.60;;;;;;;10.05;100.00;98717.31;5026998;28;20040;-75
2023/03/11 00:32:31;;;;;;;9.00;5.95;;;;;;;10.01;100.00;98716.06;5030465;28;20032;-75
2023/03/11 00:34:57;;;;;;;13.45;6.45;;;;;;;9.94;100.00;98715.97;5037010;28;20039;-75
2023/03/11 00:37:22;;;;;;;10.75;6.22;;;;;;;9.91;100.00;98723.38;5045650;28;20035;-75
2023/03/11 00:39:47;;;;;;;12.05;5.95;;;;;;;9.88;100.00;98742.75;5032730;28;20052;-75
2023/03/11 00:42:13;;;;;;;9.00;5.25;;;;;;;9.86;100.00;98754.31;5033503;28;20036;-75
2023/03/11 00:44:38;;;;;;;8.23;4.90;;;;;;;9.85;100.00;98750.91;5036425;28;20040;-75
2023/03/11 00:47:04;;;;;;;8.88;4.63;;;;;;;9.82;100.00;98753.06;5047403;28;20029;-75
2023/03/11 00:49:29;;;;;;;9.55;4.53;;;;;;;9.79;100.00;98743.03;5030677;28;20041;-75
2023/03/11 00:51:54;;;;;;;14.00;3.88;;;;;;;9.78;100.00;98744.00;5034885;28;20034;-75
2023/03/11 00:54:20;;;;;;;7.65;4.00;;;;;;;9.80;100.00;98749.84;5040643;28;20055;-75
2023/03/11 00:56:45;;;;;;;8.18;2.80;;;;;;;9.77;100.00;98750.19;5033411;28;20080;-75
2023/03/11 00:59:11;;;;;;;8.10;3.03;;;;;;;9.60;100.00;98750.38;5033331;28;20045;-75
2023/03/11 01:01:36;;;;;;;3.85;2.30;;;;;;;9.49;100.00;98748.22;5034331;28;20041;-75
2023/03/11 01:04:02;;;;;;;6.82;3.22;;;;;;;9.44;100.00;98742.78;5035480;28;20531;-74
2023/03/11 01:06:27;;;;;;;7.35;4.00;;;;;;;9.37;100.00;98730.66;5042221;28;20479;-75
2023/03/11 01:08:52;;;;;;;6.00;3.38;;;;;;;9.29;100.00;98715.97;5036019;28;20045;-75
2023/03/11 01:11:18;;;;;;;6.55;3.20;;;;;;;9.23;100.00;98725.28;5042770;28;20040;-75
2023/03/11 01:13:43;;;;;;;13.43;4.35;;;;;;;9.19;100.00;98720.59;5032485;28;20037;-75
2023/03/11 01:16:09;;;;;;;8.70;3.75;;;;;;;9.09;100.00;98707.06;5041068;28;20036;-75
2023/03/11 01:18:34;;;;;;;9.18;3.83;;;;;;;8.96;100.00;98716.28;5032024;28;20056;-74
2023/03/11 01:21:00;;;;;;;6.88;3.45;;;;;;;8.89;100.00;98717.97;5016479;28;20037;-75
2023/03/11 01:23:25;;;;;;;7.38;3.60;;;;;;;8.86;100.00;98718.31;5033849;28;20094;-75
2023/03/11 01:25:51;;;;;;;6.65;3.78;;;;;;;8.87;100.00;98721.72;5046260;28;20102;-75
2023/03/11 01:28:16;;;;;;;5.25;4.00;;;;;;;8.86;100.00;98718.31;5036187;28;20503;-75
2023/03/11 01:30:42;;;;;;;9.88;4.03;;;;;;;8.82;100.00;98713.66;5030334;28;20053;-75
2023/03/11 01:33:17;;;;;;;7.78;3.83;;;;;;;8.76;100.00;98691.00;5038277;28;20040;-75
2023/03/11 01:35:43;;;;;;;9.45;4.40;;;;;;;8.69;100.00;98697.88;5043805;28;20083;-75
2023/03/11 01:38:09;;;;;;;10.73;4.50;;;;;;;8.61;100.00;98693.53;5047204;28;20052;-75
2023/03/11 01:40:47;;;;;;;9.73;4.90;;;;;;;8.54;100.00;98684.84;5035775;28;20087;-75
2023/03/11 01:43:40;;;;;;;10.63;4.05;;;;;;;8.52;100.00;98684.19;5041708;28;20037;-75
2023/03/11 01:46:23;;;;;;;11.88;5.53;;;;;;;8.44;100.00;98690.28;5048076;28;20025;-75
2023/03/11 01:48:59;;;;;;;10.20;4.88;;;;;;;8.40;100.00;98699.41;5042170;28;20051;-75
2023/03/11 01:51:29;;;;;;;11.60;5.93;;;;;;;8.43;100.00;98706.84;5046552;28;20416;-75
2023/03/11 01:53:58;;;;;;;12.20;5.20;;;;;;;8.52;100.00;98710.16;5046656;28;20029;-75
2023/03/11 01:56:24;;;;;;;10.82;4.53;;;;;;;8.41;100.00;98708.78;5047458;28;20029;-75
2023/03/11 01:58:52;;;;;;;7.68;4.38;;;;;;;8.34;100.00;98714.84;5045627;28;20412;-74
2023/03/11 02:01:19;;;;;;;10.57;4.18;;;;;;;8.31;100.00;98703.81;5046562;28;20043;-75
2023/03/11 02:03:45;;;;;;;10.43;3.53;;;;;;;8.30;100.00;98707.38;5039836;28;20036;-75
2023/03/11 02:06:17;;;;;;;7.57;4.00;;;;;;;8.27;100.00;98702.53;5048963;28;20461;-75
2023/03/11 02:08:43;;;;;;;8.60;4.25;;;;;;;8.32;100.00;98684.69;5041703;28;20164;-75
2023/03/11 02:11:14;;;;;;;9.48;4.25;;;;;;;8.32;100.00;98676.91;5047449;28;20025;-75
2023/03/11 02:13:40;;;;;;;10.35;3.63;;;;;;;8.27;100.00;98681.78;5060819;28;20392;-75
2023/03/11 02:16:06;;;;;;;8.32;4.03;;;;;;;8.24;100.00;98669.13;5020551;28;20112;-75
2023/03/11 02:18:32;;;;;;;12.23;4.32;;;;;;;8.24;100.00;98669.13;5031622;28;20191;-75
2023/03/11 02:21:12;;;;;;;9.73;3.78;;;;;;;8.26;100.00;98671.56;5043942;28;20534;-75
2023/03/11 02:24:07;;;;;;;10.68;4.47;;;;;;;8.25;100.00;98669.94;5047453;28;20090;-75
2023/03/11 02:26:42;;;;;;;6.43;3.50;;;;;;;8.26;100.00;98672.38;5035619;28;20086;-75
2023/03/11 02:29:10;;;;;;;14.03;4.07;;;;;;;8.31;100.00;98671.84;5047153;28;20045;-75
2023/03/11 02:31:39;;;;;;;9.15;4.05;;;;;;;8.31;100.00;98662.28;5043468;28;20115;-75
2023/03/11 02:34:11;;;;;;;11.50;3.65;;;;;;;8.30;100.00;98665.06;5045246;28;20529;-75
2023/03/11 02:36:39;;;;;;;8.45;3.95;;;;;;;8.31;100.00;98661.47;5044367;28;20025;-75
2023/03/11 02:39:06;;;;;;;7.13;3.72;;;;;;;8.34;100.00;98660.34;5046673;28;20033;-75
2023/03/11 02:41:35;;;;;;;10.05;3.47;;;;;;;8.40;100.00;98670.84;5051419;28;20464;-75
2023/03/11 02:44:03;;;;;;;12.07;4.25;;;;;;;8.40;100.00;98665.66;5045480;28;20360;-75
2023/03/11 02:46:28;;;;;;;7.75;4.13;;;;;;;8.37;100.00;98657.41;5044278;28;20469;-75
2023/03/11 02:48:56;;;;;;;10.05;5.10;;;;;;;8.32;100.00;98663.09;5046104;28;20044;-75
2023/03/11 02:51:21;;;;;;;10.07;4.70;;;;;;;8.35;100.00;98674.94;5049925;28;20536;-75
2023/03/11 02:53:50;;;;;;;12.07;5.15;;;;;;;8.44;100.00;98664.34;5046664;28;20043;-75
2023/03/11 02:56:15;;;;;;;10.63;4.45;;;;;;;8.47;100.00;98658.78;5041877;28;20025;-75
2023/03/11 02:58:41;;;;;;;11.43;4.47;;;;;;;8.43;100.00;98654.13;5024121;28;20514;-75
2023/03/11 03:01:06;;;;;;;10.18;4.95;;;;;;;8.36;100.00;98640.22;5031430;28;20098;-75
2023/03/11 03:03:32;;;;;;;8.38;3.67;;;;;;;8.27;100.00;98644.63;5048581;28;20029;-75
2023/03/11 03:05:57;;;;;;;10.07;4.43;;;;;;;8.18;100.00;98659.44;5045074;28;20021;-75
2023/03/11 03:08:23;;;;;;;8.50;4.30;;;;;;;8.12;100.00;98660.13;5041770;28;20037;-75
2023/03/11 03:10:48;;;;;;;10.30;4.13;;;;;;;8.11;100.00;98658.53;5045385;28;20148;-75
2023/03/11 03:13:14;;;;;;;12.25;5.13;;;;;;;8.06;100.00;98657.44;5047664;28;20033;-75
2023/03/11 03:15:39;;;;;;;13.00;3.80;;;;;;;7.96;100.00;98658.47;5045160;28;20040;-75
2023/03/11 03:18:05;;;;;;;11.20;4.00;;;;;;;7.91;100.00;98660.78;5045564;28;20021;-75
2023/03/11 03:20:30;;;;;;;10.75;3.95;;;;;;;7.86;100.00;98659.66;5044491;28;20041;-75
2023/03/11 03:22:56;;;;;;;7.28;4.35;;;;;;;7.74;100.00;98659.25;5042629;28;20028;-76
2023/03/11 03:25:21;;;;;;;10.02;5.05;;;;;;;7.65;100.00;98660.25;5043553;28;20047;-76
2023/03/11 03:27:47;;;;;;;11.88;4.72;;;;;;;7.62;100.00;98660.59;5047292;28;20051;-75
2023/03/11 03:30:13;;;;;;;12.40;4.85;;;;;;;7.62;100.00;98655.41;5044504;28;20044;-75
2023/03/11 03:32:39;;;;;;;16.63;5.18;;;;;;;7.61;100.00;98659.78;5045960;28;20112;-75
2023/03/11 03:35:05;;;;;;;9.73;4.78;;;;;;;7.60;100.00;98684.09;5043332;28;20060;-75
2023/03/11 03:37:35;;;;;;;8.20;5.35;;;;;;;7.66;100.00;98687.78;5046863;28;20088;-75
2023/03/11 03:40:06;;;;;;;10.57;6.03;;;;;;;7.68;100.00;98693.63;5040189;28;20024;-76
2023/03/11 03:42:31;;;;;;;9.57;6.35;;;;;;;7.73;100.00;98687.94;5042777;28;20143;-75
2023/03/11 03:44:56;;;;;;;15.30;6.60;;;;;;;7.86;100.00;98685.59;5041603;28;20071;-75
2023/03/11 03:47:22;;;;;;;12.48;6.22;;;;;;;7.95;100.00;98695.75;5048189;28;20032;-75
2023/03/11 03:49:47;;;;;;;18.40;5.78;;;;;;;8.00;100.00;98687.47;5041044;28;20034;-75
2023/03/11 03:52:14;;;;;;;13.48;5.97;;;;;;;7.99;100.00;98676.28;5048773;28;20088;-75
2023/03/11 03:54:39;;;;;;;13.63;6.30;;;;;;;7.93;100.00;98668.38;5043323;28;20044;-75
2023/03/11 03:57:05;;;;;;;14.18;5.38;;;;;;;7.83;100.00;98673.78;5044989;28;20039;-75
2023/03/11 03:59:30;;;;;;;14.20;5.93;;;;;;;7.79;100.00;98674.28;5041016;28;20033;-75
2023/03/11 04:01:56;;;;;;;9.90;5.93;;;;;;;7.78;100.00;98675.28;5041760;28;20049;-75
2023/03/11 04:04:21;;;;;;;17.48;6.45;;;;;;;7.74;100.00;98679.19;5044109;28;20506;-74
2023/03/11 04:06:47;;;;;;;12.07;6.15;;;;;;;7.69;100.00;98687.47;5045900;28;20028;-74
2023/03/11 04:09:13;;;;;;;14.35;6.15;;;;;;;7.64;100.00;98684.56;5047705;28;20065;-74
2023/03/11 04:11:38;;;;;;;12.73;5.30;;;;;;;7.61;100.00;98685.69;5046340;28;20029;-75
2023/03/11 04:14:05;;;;;;;11.23;5.32;;;;;;;7.58;100.00;98691.22;5045162;28;20091;-75
2023/03/11 04:16:31;;;;;;;15.90;6.28;;;;;;;7.57;100.00;98696.56;5048068;28;20112;-75
2023/03/11 04:18:57;;;;;;;13.85;5.90;;;;;;;7.51;100.00;98698.06;5047775;28;20571;-75
2023/03/11 04:21:23;;;;;;;17.38;5.97;;;;;;;7.48;100.00;98705.38;5052039;28;20133;-75
2023/03/11 04:23:48;;;;;;;13.48;5.43;;;;;;;7.41;100.00;98704.44;5043610;28;20033;-75
2023/03/11 04:26:14;;;;;;;9.77;5.20;;;;;;;7.43;100.00;98705.88;5046463;28;20029;-75
2023/03/11 04:28:39;;;;;;;14.93;6.85;;;;;;;7.47;100.00;98707.16;5050481;28;20033;-75
2023/03/11 04:31:05;;;;;;;10.98;5.03;;;;;;;7.47;100.00;98704.56;5047256;28;20080;-75
2023/03/11 04:33:30;;;;;;;17.10;6.60;;;;;;;7.42;100.00;98699.06;5047763;28;20037;-75
2023/03/11 04:35:56;;;;;;;12.32;6.15;;;;;;;7.40;100.00;98687.25;5031638;28;20037;-75
2023/03/11 04:38:22;;;;;;;20.17;7.35;;;;;;;7.34;100.00;98683.56;5047256;28;20044;-75
2023/03/11 04:40:47;;;;;;;9.98;5.13;;;;;;;7.33;100.00;98681.94;5046272;28;20033;-75
2023/03/11 04:43:13;;;;;;;12.82;6.30;;;;;;;7.26;100.00;98666.25;5041912;28;20037;-75
2023/03/11 04:45:39;;;;;;;9.13;4.85;;;;;;;7.20;100.00;98660.94;5049026;28;20112;-75
2023/03/11 04:48:05;;;;;;;17.38;6.63;;;;;;;7.17;100.00;98669.03;5045268;28;20021;-75
2023/03/11 04:50:31;;;;;;;13.48;5.50;;;;;;;7.10;100.00;98661.09;5046401;28;20032;-75
2023/03/11 04:52:56;;;;;;;12.25;6.03;;;;;;;7.06;100.00;98664.22;5048555;28;20040;-75
2023/03/11 04:55:21;;;;;;;14.50;6.70;;;;;;;6.95;100.00;98671.38;5034714;28;20075;-75
2023/03/11 04:57:47;;;;;;;19.00;7.28;;;;;;;6.91;100.00;98695.97;5047754;28;20503;-75
2023/03/11 05:00:14;;;;;;;16.33;6.82;;;;;;;7.01;100.00;98697.56;5029179;28;20037;-75
2023/03/11 05:02:40;;;;;;;17.27;6.53;;;;;;;7.03;100.00;98713.75;5047707;28;20033;-75
2023/03/11 05:05:08;;;;;;;11.13;6.28;;;;;;;6.97;100.00;98707.44;5043811;28;20029;-75
2023/03/11 05:07:33;;;;;;;14.32;5.93;;;;;;;6.92;100.00;98714.91;5047678;28;20033;-75
2023/03/11 05:09:59;;;;;;;16.75;6.70;;;;;;;6.88;100.00;98719.59;5046881;28;20535;-75
2023/03/11 05:12:25;;;;;;;15.88;8.13;;;;;;;6.87;100.00;98728.31;5048021;28;20052;-75
2023/03/11 05:14:50;;;;;;;15.80;7.47;;;;;;;6.87;100.00;98743.03;5049382;28;20057;-75
2023/03/11 05:17:18;;;;;;;11.38;6.25;;;;;;;6.85;100.00;98742.41;5030382;28;20499;-75
2023/03/11 05:19:43;;;;;;;15.70;6.95;;;;;;;6.87;100.00;98720.56;5048673;28;20131;-75
2023/03/11 05:22:09;;;;;;;10.20;5.53;;;;;;;6.86;100.00;98718.94;5029115;28;20123;-75
2023/03/11 05:24:34;;;;;;;11.00;5.50;;;;;;;6.86;100.00;98716.34;5046261;28;20084;-75
2023/03/11 05:27:01;;;;;;;12.95;5.45;;;;;;;6.88;100.00;98718.78;5045509;28;20505;-75
2023/03/11 05:29:26;;;;;;;14.32;5.70;;;;;;;6.86;100.00;98716.34;5054599;28;20132;-75
2023/03/11 05:31:52;;;;;;;13.90;6.53;;;;;;;6.83;100.00;98719.25;5048296;28;20033;-75
2023/03/11 05:34:18;;;;;;;18.45;6.43;;;;;;;6.87;100.00;98725.72;5049299;28;20040;-75
2023/03/11 05:36:44;;;;;;;15.40;7.25;;;;;;;6.92;100.00;98715.69;5047824;28;20029;-75
2023/03/11 05:39:09;;;;;;;16.35;6.07;;;;;;;6.89;100.00;98699.69;5048133;28;20032;-75
2023/03/11 05:41:35;;;;;;;18.38;7.18;;;;;;;6.88;100.00;98692.88;5048052;28;20080;-75
2023/03/11 05:44:00;;;;;;;20.00;7.85;;;;;;;6.91;100.00;98688.19;5038298;28;20079;-75
2023/03/11 05:46:26;;;;;;;15.98;8.15;;;;;;;6.93;100.00;98698.38;5053209;28;20035;-75
2023/03/11 05:48:52;;;;;;;16.48;6.97;;;;;;;6.98;100.00;98701.28;5031359;28;20040;-75
2023/03/11 05:51:17;;;;;;;17.80;8.00;;;;;;;7.02;100.00;98714.72;5052080;28;20037;-75
2023/03/11 05:53:47;;;;;;;21.92;9.45;;;;;;;7.17;100.00;98723.41;5044290;28;20036;-75
2023/03/11 05:56:14;;;;;;;18.40;8.93;;;;;;;7.25;100.00;98731.19;5044788;28;20079;-75
2023/03/11 05:58:40;;;;;;;15.07;8.35;;;;;;;7.24;100.00;98732.16;5048927;28;20044;-75
2023/03/11 06:01:11;;;;;;;22.08;8.95;;;;;;;7.27;100.00;98735.22;5045702;28;20036;-75
2023/03/11 06:03:37;;;;;;;16.83;8.45;;;;;;;7.29;100.00;98737.66;5043177;28;20029;-75
2023/03/11 06:06:05;;;;;;;17.83;9.40;;;;;;;7.31;100.00;98736.50;5046387;28;20025;-75
2023/03/11 06:08:33;;;;;;;18.58;9.43;;;;;;;7.31;100.00;98744.28;5046715;28;20092;-75
2023/03/11 06:11:07;;;;;;;15.65;8.75;;;;;;;7.29;100.00;98748.00;5044818;28;20096;-76
2023/03/11 06:13:33;;;;;;;15.55;8.50;;;;;;;7.31;100.00;98756.44;5046000;28;20087;-75
2023/03/11 06:15:59;;;;;;;19.48;9.25;;;;;;;7.32;100.00;98742.50;5043640;28;20068;-75
2023/03/11 06:18:27;;;;;;;21.35;9.88;;;;;;;7.32;100.00;98747.69;5029381;28;20583;-75
2023/03/11 06:20:56;;;;;;;19.58;9.43;;;;;;;7.28;100.00;98741.22;5042873;28;20025;-75
2023/03/11 06:23:22;;;;;;;23.60;12.15;;;;;;;7.38;100.00;98744.44;5041638;28;20420;-75
2023/03/11 06:26:03;;;;;;;25.77;11.70;;;;;;;7.91;100.00;98738.56;5044725;28;20108;-75
2023/03/11 06:28:29;;;;;;;20.17;10.68;;;;;;;7.97;100.00;98745.69;5045013;28;20033;-75
2023/03/11 06:31:00;;;;;;;19.52;10.10;;;;;;;7.95;100.00;98745.03;5041027;28;20400;-75
2023/03/11 06:33:25;;;;;;;25.25;10.95;;;;;;;8.01;100.00;98753.94;5045632;28;20028;-75
2023/03/11 06:35:58;;;;;;;23.90;11.02;;;;;;;8.15;100.00;98757.56;5038988;28;20037;-75
2023/03/11 06:38:24;;;;;;;25.25;11.50;;;;;;;8.37;100.00;98766.41;5042271;28;20056;-75
2023/03/11 06:40:50;;;;;;;22.55;10.60;;;;;;;8.55;100.00;98766.91;5020906;28;20438;-75
2023/03/11 06:43:15;;;;;;;24.27;10.98;;;;;;;8.80;100.00;98770.97;5035691;28;20048;-75
2023/03/11 06:45:41;;;;;;;19.98;9.80;;;;;;;9.04;100.00;98777.72;5039589;28;20032;-76
2023/03/11 06:48:06;;;;;;;19.00;11.27;;;;;;;9.24;100.00;98778.06;5039133;28;20024;-75
2023/03/11 06:50:31;;;;;;;31.15;11.80;;;;;;;9.33;100.00;98787.41;5045052;28;20401;-75
2023/03/11 06:52:57;;;;;;;19.10;11.57;;;;;;;9.59;100.00;98785.16;5039645;28;20029;-75
2023/03/11 06:55:22;;;;;;;18.95;9.95;;;;;;;9.67;100.00;98788.66;5038248;28;20041;-75
2023/03/11 06:57:48;;;;;;;20.73;10.35;;;;;;;9.71;100.00;98803.72;5043526;28;20036;-75
2023/03/11 07:00:15;;;;;;;20.27;9.30;;;;;;;9.73;100.00;98813.97;5045111;28;20040;-75
2023/03/11 07:02:40;;;;;;;27.48;9.77;;;;;;;9.67;100.00;98814.66;5048435;28;20075;-75
2023/03/11 07:05:06;;;;;;;21.27;9.00;;;;;;;9.67;100.00;98819.88;5023432;28;20029;-75
2023/03/11 07:07:32;;;;;;;19.90;9.48;;;;;;;9.72;100.00;98826.16;5035004;28;20025;-76
2023/03/11 07:09:57;;;;;;;18.48;8.73;;;;;;;9.86;100.00;98829.75;5026076;28;20059;-75
2023/03/11 07:12:24;;;;;;;16.63;8.68;;;;;;;10.01;100.00;98829.72;5043856;28;20028;-74
2023/03/11 07:14:56;;;;;;;14.75;8.32;;;;;;;10.02;100.00;98823.53;5037454;28;20024;-75
2023/03/11 07:17:23;;;;;;;16.98;8.23;;;;;;;10.55;100.00;98831.00;5036867;28;20119;-74
2023/03/11 07:19:49;;;;;;;16.77;8.55;;;;;;;11.04;100.00;98832.09;5042877;28;20032;-75
2023/03/11 07:22:14;;;;;;;19.45;8.57;;;;;;;10.94;100.00;98838.41;5027206;28;20028;-75
2023/03/11 07:24:40;;;;;;;17.75;8.40;;;;;;;11.15;100.00;98831.59;5041189;28;20040;-75
2023/03/11 07:27:05;;;;;;;14.32;7.93;;;;;;;11.29;100.00;98833.31;5038411;28;20025;-75
2023/03/11 07:29:31;;;;;;;18.10;8.02;;;;;;;11.59;100.00;98839.16;5023372;28;20154;-73
2023/03/11 07:31:56;;;;;;;21.17;8.43;;;;;;;11.91;100.00;98837.75;5036995;28;20025;-76
2023/03/11 07:34:22;;;;;;;26.13;9.18;;;;;;;11.73;100.00;98838.25;5024964;28;20377;-76
2023/03/11 07:36:47;;;;;;;17.45;7.95;;;;;;;11.79;100.00;98834.91;5046056;28;20044;-76
2023/03/11 07:39:15;;;;;;;19.17;8.15;;;;;;;11.57;100.00;98835.94;5043734;28;20030;-76
2023/03/11 07:41:41;;;;;;;13.60;7.90;;;;;;;11.35;100.00;98832.53;5037692;28;20049;-76
2023/03/11 07:44:06;;;;;;;15.55;7.38;;;;;;;11.59;100.00;98832.13;5040666;28;20468;-76
2023/03/11 07:46:32;;;;;;;15.45;7.68;;;;;;;11.90;100.00;98841.38;5044212;28;20033;-76
2023/03/11 07:48:58;;;;;;;14.55;7.72;;;;;;;12.14;100.00;98840.91;5025989;28;20025;-76
2023/03/11 07:51:25;;;;;;;16.15;7.30;;;;;;;12.33;100.00;98841.16;5048117;28;20036;-75
2023/03/11 07:53:54;;;;;;;16.30;7.68;;;;;;;12.27;100.00;98851.44;5045685;28;20029;-73
2023/03/11 07:56:21;;;;;;;18.15;8.25;;;;;;;12.05;100.00;98849.91;5024071;28;20033;-72
2023/03/11 07:58:47;;;;;;;17.65;7.53;;;;;;;12.01;100.00;98858.31;5051939;28;20127;-73
2023/03/11 08:01:17;;;;;;;13.55;7.97;;;;;;;11.89;100.00;98858.03;5047707;28;20154;-73
2023/03/11 08:03:45;;;;;;;15.02;8.27;;;;;;;12.00;100.00;98854.09;5050158;28;20043;-73
2023/03/11 08:06:11;;;;;;;17.50;8.15;;;;;;;12.17;100.00;98865.81;5051067;28;20060;-73
2023/03/11 08:08:37;;;;;;;18.48;8.75;;;;;;;12.26;100.00;98873.31;5068154;28;20037;-72
2023/03/11 08:11:03;;;;;;;18.85;8.68;;;;;;;12.43;100.00;98872.97;5051921;28;20028;-72
2023/03/11 08:13:28;;;;;;;16.58;9.45;;;;;;;12.69;100.00;98877.50;5052767;28;20069;-73
2023/03/11 08:15:54;;;;;;;17.15;10.27;;;;;;;12.86;100.00;98879.53;5051412;28;20029;-72
2023/03/11 08:18:19;;;;;;;19.55;10.25;;;;;;;13.10;98.79;98886.03;5049177;28;20033;-73
2023/03/11 08:20:45;;;;;;;19.88;10.15;;;;;;;12.95;97.58;98882.78;5044997;28;20024;-73
2023/03/11 08:23:11;;;;;;;21.35;11.15;;;;;;;12.95;98.16;98888.81;5031508;28;20086;-72
2023/03/11 08:25:39;;;;;;;20.95;10.70;;;;;;;12.90;96.67;98882.56;5033822;28;20369;-70
2023/03/11 08:28:06;;;;;;;22.23;12.07;;;;;;;13.13;95.91;98882.22;5063814;28;20031;-70
2023/03/11 08:30:32;;;;;;;19.60;11.77;;;;;;;13.24;94.04;98887.66;5055038;28;20040;-70
2023/03/11 08:32:58;;;;;;;26.48;11.95;;;;;;;13.33;92.65;98883.03;5063914;28;20116;-70
2023/03/11 08:35:24;;;;;;;17.55;11.05;;;;;;;13.39;90.45;98879.63;5060204;28;20029;-70
2023/03/11 08:37:50;;;;;;;20.83;10.63;;;;;;;13.48;89.04;98878.44;5039208;28;21274;-70
2023/03/11 08:40:16;;;;;;;23.33;10.32;;;;;;;13.47;88.79;98868.16;5050056;28;20460;-71
2023/03/11 08:42:41;;;;;;;18.27;9.73;;;;;;;13.72;86.46;98878.81;5029777;28;20029;-71
2023/03/11 08:45:07;;;;;;;21.05;10.75;;;;;;;14.08;85.78;98878.34;5040899;28;20487;-72
2023/03/11 08:47:35;;;;;;;19.27;10.10;;;;;;;14.39;83.43;98886.31;5033601;28;20392;-72
2023/03/11 08:50:01;;;;;;;17.52;10.30;;;;;;;14.59;80.95;98879.22;5033439;28;20063;-71
2023/03/11 08:52:26;;;;;;;17.60;10.45;;;;;;;14.64;79.97;98873.34;5053876;28;20482;-71
2023/03/11 08:54:51;;;;;;;19.00;10.27;;;;;;;15.44;77.65;98871.81;5051063;28;20025;-71
2023/03/11 08:57:17;;;;;;;18.63;9.82;;;;;;;16.53;72.35;98873.75;5047237;28;20041;-72
2023/03/11 08:59:42;;;;;;;21.13;10.02;;;;;;;16.97;70.06;98887.56;5047769;28;20029;-71
2023/03/11 09:02:09;;;;;;;17.02;9.93;;;;;;;16.27;70.96;98889.81;5046500;28;20060;-72
2023/03/11 09:04:34;;;;;;;17.00;9.68;;;;;;;16.19;71.83;98901.41;5063338;28;20098;-71
2023/03/11 09:07:00;;;;;;;19.35;10.15;;;;;;;16.40;68.71;98891.50;5044427;28;20021;-71
2023/03/11 09:09:25;;;;;;;19.80;10.43;;;;;;;16.32;68.67;98897.03;5046578;28;20036;-71
2023/03/11 09:11:51;;;;;;;18.80;9.48;;;;;;;14.63;75.80;98903.19;5046198;28;20048;-74
2023/03/11 09:14:16;;;;;;;21.92;9.68;;;;;;;13.88;79.15;98899.34;5040112;28;20391;-73
2023/03/11 09:16:42;;;;;;;19.27;9.77;;;;;;;13.69;81.84;98911.44;5055266;28;20036;-74
2023/03/11 09:19:07;;;;;;;20.00;9.65;;;;;;;13.69;81.81;98908.84;5029020;28;20430;-74
2023/03/11 09:21:33;;;;;;;18.38;8.85;;;;;;;13.64;82.87;98902.59;5061105;28;20060;-74
2023/03/11 09:24:00;;;;;;;17.80;9.23;;;;;;;13.85;81.43;98890.06;5055048;28;20032;-74
2023/03/11 09:26:26;;;;;;;14.93;7.70;;;;;;;13.91;80.42;98906.78;5055171;28;20071;-74
2023/03/11 09:28:51;;;;;;;13.50;7.68;;;;;;;13.81;78.90;98903.75;5052831;28;20047;-74
2023/03/11 09:31:18;;;;;;;13.45;7.38;;;;;;;13.80;80.07;98907.38;5062104;28;20033;-76
2023/03/11 09:33:44;;;;;;;13.48;7.95;;;;;;;13.85;80.20;98911.00;5055427;28;20048;-75
2023/03/11 09:36:14;;;;;;;17.33;9.23;;;;;;;13.94;79.99;98909.78;5054890;28;20037;-75
2023/03/11 09:38:41;;;;;;;11.77;7.43;;;;;;;13.94;81.17;98903.75;5046912;28;20495;-75
2023/03/11 09:41:14;;;;;;;16.92;7.45;;;;;;;13.84;81.85;98896.31;5040355;28;20036;-75
2023/03/11 09:44:01;;;;;;;16.40;7.45;;;;;;;13.83;79.05;98902.56;5029140;28;20476;-75
2023/03/11 09:46:54;;;;;;;16.45;7.82;;;;;;;13.95;74.22;98906.19;5050549;28;20081;-76
2023/03/11 09:49:28;;;;;;;14.82;6.80;;;;;;;13.97;76.59;98902.53;5050181;28;20492;-76
2023/03/11 09:52:11;;;;;;;11.60;5.70;;;;;;;13.97;74.85;98903.34;5049332;28;20036;-76
2023/03/11 09:54:41;;;;;;;12.35;6.18;;;;;;;14.14;73.90;98904.53;5051361;28;20033;-76
2023/03/11 09:57:13;;;;;;;10.48;4.78;;;;;;;14.24;70.14;98912.75;5045940;28;20649;-77
2023/03/11 09:59:41;;;;;;;10.63;4.38;;;;;;;14.33;72.34;98908.09;5049676;28;20035;-71
2023/03/11 10:02:15;;;;;;;11.95;4.68;;;;;;;14.41;71.87;98902.66;5057891;28;20029;-76
2023/03/11 10:04:56;;;;;;;13.45;5.47;;;;;;;14.40;72.34;98903.63;5052792;28;20135;-76
2023/03/11 10:07:27;;;;;;;10.60;5.15;;;;;;;14.31;75.88;98901.44;5056563;28;20056;-77
2023/03/11 10:09:56;;;;;;;12.38;5.70;;;;;;;14.15;76.48;98895.66;5046758;28;20061;-77
2023/03/11 10:12:33;;;;;;;11.90;6.32;;;;;;;14.18;71.63;98895.22;5058582;28;20479;-77
2023/03/11 10:15:30;;;;;;;13.50;5.35;;;;;;;14.41;69.33;98897.41;5061257;28;20097;-77
2023/03/11 10:18:04;;;;;;;6.65;4.50;;;;;;;14.48;73.18;98903.44;5050569;28;20029;-76
2023/03/11 10:20:50;;;;;;;9.13;4.72;;;;;;;14.61;71.68;98894.72;5048949;28;20436;-76
2023/03/11 10:23:25;;;;;;;12.88;4.70;;;;;;;14.75;72.20;98896.25;5057286;28;20119;-76
2023/03/11 10:26:02;;;;;;;9.98;4.40;;;;;;;14.89;71.38;98895.19;5055571;28;20060;-73
2023/03/11 10:28:34;;;;;;;18.73;10.60;;;;;;;14.92;70.39;98892.16;5056211;28;20033;-74
2023/03/11 10:31:17;;;;;;;15.27;7.78;;;;;;;14.86;68.83;98890.34;5063457;28;20407;-74
2023/03/11 10:33:51;;;;;;;11.18;4.45;;;;;;;14.98;69.01;98894.94;5055094;28;20033;-75
2023/03/11 10:36:23;;;;;;;7.43;4.13;;;;;;;14.95;69.85;98904.03;5048348;28;20025;-73
2023/03/11 10:38:51;;;;;;;5.22;2.75;;;;;;;14.93;69.38;98898.19;5048269;28;20033;-74
2023/03/11 10:41:40;;;;;;;10.90;4.43;;;;;;;14.99;68.62;98905.22;5046952;28;20147;-74
2023/03/11 10:44:16;;;;;;;9.13;4.97;;;;;;;15.13;68.37;98900.69;5048631;28;20123;-74
2023/03/11 10:46:41;;;;;;;8.73;4.78;;;;;;;15.07;69.44;98909.41;5059428;28;20056;-74
2023/03/11 10:49:14;;;;;;;11.88;5.43;;;;;;;15.10;68.60;98909.81;5051296;28;20059;-77
2023/03/11 10:51:41;;;;;;;9.00;3.97;;;;;;;15.11;68.50;98905.34;5047484;28;20495;-78
2023/03/11 10:54:06;;;;;;;8.95;3.55;;;;;;;15.20;67.50;98907.50;5041684;28;20036;-77
2023/03/11 10:56:40;;;;;;;8.35;3.42;;;;;;;15.19;67.57;98908.50;5063002;28;20056;-76
2023/03/11 10:59:24;;;;;;;10.13;4.65;;;;;;;15.16;66.74;98914.19;5047530;28;20127;-77
2023/03/11 11:01:54;;;;;;;6.68;3.20;;;;;;;15.22;67.99;98913.34;5055483;28;20032;-77
2023/03/11 11:04:39;;;;;;;15.98;4.45;;;;;;;15.21;66.08;98901.22;5065881;28;20028;-76
2023/03/11 11:07:28;;;;;;;6.85;2.92;;;;;;;15.22;61.53;98899.41;5056653;28;20052;-79
2023/03/11 11:10:23;;;;;;;5.72;2.83;;;;;;;15.30;60.78;98888.66;5060338;28;20112;-74
2023/03/11 11:12:56;;;;;;;9.95;3.13;;;;;;;15.43;62.83;98885.16;5054218;28;20136;-73
2023/03/11 11:15:29;;;;;;;5.15;2.58;;;;;;;15.38;64.50;98883.16;5044946;28;20036;-74
2023/03/11 11:17:58;;;;;;;5.65;2.45;;;;;;;15.32;65.25;98886.63;5066651;28;20128;-75
2023/03/11 11:20:25;;;;;;;3.05;1.70;;;;;;;15.44;63.69;98886.75;5064581;28;20054;-75
2023/03/11 11:22:56;;;;;;;3.42;1.77;;;;;;;15.63;60.86;98885.00;5069822;28;20476;-75
2023/03/11 11:25:30;;;;;;;6.07;1.52;;;;;;;15.59;60.42;98876.78;5070537;28;20074;-75
2023/03/11 11:28:04;;;;;;;4.65;1.70;;;;;;;15.63;60.72;98880.53;5067242;28;20054;-74